sensor_id;sensor_type;location;lat;lon;timestamp;P1;durP1;ratioP1;P2;durP2;ratioP2
48727;SDS011;34527;45.618;5.130;2023-03-01T00:01:03;30.15;;;19.08;;
48727;SDS011;34527;45.618;5.130;2023-03-01T00:03:30;26.15;;;18.30;;
48727;SDS011;34527;45.618;5.130;2023-03-01T00:05:56;28.60;;;19.10;;
48727;SDS011;34527;45.618;5.130;2023-03-01T00:08:22;29.95;;;19.85;;
48727;SDS011;34527;45.618;5.130;2023-03-01T00:10:48;26.73;;;18.05;;
48727;SDS011;34527;45.618;5.130;2023-03-01T00:13:13;26.05;;;18.42;;
48727;SDS011;34527;45.618;5.130;2023-03-01T00:15:39;27.48;;;18.42;;
48727;SDS011;34527;45.618;5.130;2023-03-01T00:18:06;28.65;;;19.20;;
48727;SDS011;34527;45.618;5.130;2023-03-01T00:20:33;26.40;;;18.92;;
48727;SDS011;34527;45.618;5.130;2023-03-01T00:22:59;32.88;;;20.92;;
48727;SDS011;34527;45.618;5.130;2023-03-01T00:25:25;26.45;;;19.42;;
48727;SDS011;34527;45.618;5.130;2023-03-01T00:27:50;29.70;;;20.33;;
48727;SDS011;34527;45.618;5.130;2023-03-01T00:30:16;29.90;;;20.10;;
48727;SDS011;34527;45.618;5.130;2023-03-01T00:32:41;24.63;;;18.40;;
48727;SDS011;34527;45.618;5.130;2023-03-01T00:35:07;28.33;;;19.60;;
48727;SDS011;34527;45.618;5.130;2023-03-01T00:37:33;26.88;;;19.35;;
48727;SDS011;34527;45.618;5.130;2023-03-01T00:39:58;29.50;;;19.48;;
48727;SDS011;34527;45.618;5.130;2023-03-01T00:42:24;27.13;;;19.30;;
48727;SDS011;34527;45.618;5.130;2023-03-01T00:44:49;28.00;;;19.10;;
48727;SDS011;34527;45.618;5.130;2023-03-01T00:47:15;28.98;;;18.70;;
48727;SDS011;34527;45.618;5.130;2023-03-01T00:49:41;29.75;;;19.83;;
48727;SDS011;34527;45.618;5.130;2023-03-01T00:52:06;28.02;;;19.92;;
48727;SDS011;34527;45.618;5.130;2023-03-01T00:54:32;30.20;;;19.75;;
48727;SDS011;34527;45.618;5.130;2023-03-01T00:56:57;31.17;;;20.00;;
48727;SDS011;34527;45.618;5.130;2023-03-01T00:59:23;30.48;;;19.70;;
48727;SDS011;34527;45.618;5.130;2023-03-01T01:01:49;32.70;;;20.35;;
48727;SDS011;34527;45.618;5.130;2023-03-01T01:04:14;31.90;;;20.13;;
48727;SDS011;34527;45.618;5.130;2023-03-01T01:06:44;26.95;;;19.17;;
48727;SDS011;34527;45.618;5.130;2023-03-01T01:09:12;28.83;;;19.45;;
48727;SDS011;34527;45.618;5.130;2023-03-01T01:11:47;31.40;;;20.92;;
48727;SDS011;34527;45.618;5.130;2023-03-01T01:14:14;33.85;;;20.45;;
48727;SDS011;34527;45.618;5.130;2023-03-01T01:16:40;29.80;;;20.20;;
48727;SDS011;34527;45.618;5.130;2023-03-01T01:19:05;31.10;;;20.92;;
48727;SDS011;34527;45.618;5.130;2023-03-01T01:21:31;29.40;;;19.40;;
48727;SDS011;34527;45.618;5.130;2023-03-01T01:23:57;29.95;;;19.23;;
48727;SDS011;34527;45.618;5.130;2023-03-01T01:26:25;28.80;;;19.23;;
48727;SDS011;34527;45.618;5.130;2023-03-01T01:28:53;29.40;;;19.98;;
48727;SDS011;34527;45.618;5.130;2023-03-01T01:31:20;30.27;;;19.90;;
48727;SDS011;34527;45.618;5.130;2023-03-01T01:33:48;31.88;;;20.20;;
48727;SDS011;34527;45.618;5.130;2023-03-01T01:36:15;32.08;;;19.95;;
48727;SDS011;34527;45.618;5.130;2023-03-01T01:38:41;32.28;;;19.73;;
48727;SDS011;34527;45.618;5.130;2023-03-01T01:41:07;27.45;;;19.17;;
48727;SDS011;34527;45.618;5.130;2023-03-01T01:43:37;29.40;;;19.15;;
48727;SDS011;34527;45.618;5.130;2023-03-01T01:46:16;33.05;;;20.20;;
48727;SDS011;34527;45.618;5.130;2023-03-01T01:48:59;28.95;;;19.60;;
48727;SDS011;34527;45.618;5.130;2023-03-01T01:51:30;32.03;;;20.63;;
48727;SDS011;34527;45.618;5.130;2023-03-01T01:56:33;29.08;;;19.65;;
48727;SDS011;34527;45.618;5.130;2023-03-01T01:58:58;29.48;;;20.85;;
48727;SDS011;34527;45.618;5.130;2023-03-01T02:01:24;30.45;;;20.55;;
48727;SDS011;34527;45.618;5.130;2023-03-01T02:03:50;31.80;;;21.55;;
48727;SDS011;34527;45.618;5.130;2023-03-01T02:06:21;32.88;;;20.40;;
48727;SDS011;34527;45.618;5.130;2023-03-01T02:08:53;27.95;;;19.45;;
48727;SDS011;34527;45.618;5.130;2023-03-01T02:11:24;31.90;;;21.55;;
48727;SDS011;34527;45.618;5.130;2023-03-01T02:13:51;33.00;;;21.33;;
48727;SDS011;34527;45.618;5.130;2023-03-01T02:16:18;32.03;;;21.05;;
48727;SDS011;34527;45.618;5.130;2023-03-01T02:18:45;33.58;;;22.08;;
48727;SDS011;34527;45.618;5.130;2023-03-01T02:21:20;31.38;;;20.80;;
48727;SDS011;34527;45.618;5.130;2023-03-01T02:23:47;31.83;;;20.80;;
48727;SDS011;34527;45.618;5.130;2023-03-01T02:29:13;30.17;;;20.20;;
48727;SDS011;34527;45.618;5.130;2023-03-01T02:31:38;31.63;;;21.02;;
48727;SDS011;34527;45.618;5.130;2023-03-01T02:34:11;30.00;;;20.95;;
48727;SDS011;34527;45.618;5.130;2023-03-01T02:36:46;33.67;;;21.85;;
48727;SDS011;34527;45.618;5.130;2023-03-01T02:39:15;36.33;;;23.02;;
48727;SDS011;34527;45.618;5.130;2023-03-01T02:41:49;34.13;;;22.80;;
48727;SDS011;34527;45.618;5.130;2023-03-01T02:44:17;34.85;;;22.23;;
48727;SDS011;34527;45.618;5.130;2023-03-01T02:46:50;32.15;;;21.25;;
48727;SDS011;34527;45.618;5.130;2023-03-01T02:49:38;35.63;;;22.45;;
48727;SDS011;34527;45.618;5.130;2023-03-01T02:55:06;36.63;;;21.92;;
48727;SDS011;34527;45.618;5.130;2023-03-01T02:57:35;33.35;;;21.65;;
48727;SDS011;34527;45.618;5.130;2023-03-01T03:00:05;31.33;;;21.08;;
48727;SDS011;34527;45.618;5.130;2023-03-01T03:02:34;33.05;;;22.27;;
48727;SDS011;34527;45.618;5.130;2023-03-01T03:05:16;32.33;;;22.20;;
48727;SDS011;34527;45.618;5.130;2023-03-01T03:07:47;34.70;;;23.02;;
48727;SDS011;34527;45.618;5.130;2023-03-01T03:10:16;36.72;;;23.40;;
48727;SDS011;34527;45.618;5.130;2023-03-01T03:12:56;31.40;;;21.02;;
48727;SDS011;34527;45.618;5.130;2023-03-01T03:15:23;34.00;;;21.95;;
48727;SDS011;34527;45.618;5.130;2023-03-01T03:17:50;32.45;;;22.33;;
48727;SDS011;34527;45.618;5.130;2023-03-01T03:20:19;33.65;;;22.60;;
48727;SDS011;34527;45.618;5.130;2023-03-01T03:22:47;33.70;;;22.17;;
48727;SDS011;34527;45.618;5.130;2023-03-01T03:25:16;31.70;;;22.00;;
48727;SDS011;34527;45.618;5.130;2023-03-01T03:27:43;32.95;;;21.20;;
48727;SDS011;34527;45.618;5.130;2023-03-01T03:30:11;35.60;;;22.67;;
48727;SDS011;34527;45.618;5.130;2023-03-01T03:32:39;34.70;;;22.42;;
48727;SDS011;34527;45.618;5.130;2023-03-01T03:35:07;33.78;;;22.27;;
48727;SDS011;34527;45.618;5.130;2023-03-01T03:37:38;32.05;;;21.85;;
48727;SDS011;34527;45.618;5.130;2023-03-01T03:40:23;33.22;;;22.40;;
48727;SDS011;34527;45.618;5.130;2023-03-01T03:42:49;32.95;;;21.98;;
48727;SDS011;34527;45.618;5.130;2023-03-01T03:45:15;35.20;;;22.83;;
48727;SDS011;34527;45.618;5.130;2023-03-01T03:47:41;35.47;;;22.38;;
48727;SDS011;34527;45.618;5.130;2023-03-01T03:50:08;35.00;;;22.92;;
48727;SDS011;34527;45.618;5.130;2023-03-01T03:52:35;35.20;;;22.20;;
48727;SDS011;34527;45.618;5.130;2023-03-01T03:55:00;36.05;;;22.60;;
48727;SDS011;34527;45.618;5.130;2023-03-01T03:57:26;33.05;;;20.27;;
48727;SDS011;34527;45.618;5.130;2023-03-01T03:59:51;33.70;;;22.35;;
48727;SDS011;34527;45.618;5.130;2023-03-01T04:02:17;33.08;;;22.35;;
48727;SDS011;34527;45.618;5.130;2023-03-01T04:04:50;35.20;;;23.10;;
48727;SDS011;34527;45.618;5.130;2023-03-01T04:07:16;36.20;;;23.88;;
48727;SDS011;34527;45.618;5.130;2023-03-01T04:09:42;37.65;;;23.05;;
48727;SDS011;34527;45.618;5.130;2023-03-01T04:12:08;33.58;;;22.50;;
48727;SDS011;34527;45.618;5.130;2023-03-01T04:14:34;35.67;;;22.63;;
48727;SDS011;34527;45.618;5.130;2023-03-01T04:17:00;37.80;;;22.58;;
48727;SDS011;34527;45.618;5.130;2023-03-01T04:19:26;31.25;;;22.23;;
48727;SDS011;34527;45.618;5.130;2023-03-01T04:21:52;33.78;;;22.85;;
48727;SDS011;34527;45.618;5.130;2023-03-01T04:24:18;34.58;;;22.40;;
48727;SDS011;34527;45.618;5.130;2023-03-01T04:26:43;33.50;;;22.77;;
48727;SDS011;34527;45.618;5.130;2023-03-01T04:29:09;36.83;;;23.75;;
48727;SDS011;34527;45.618;5.130;2023-03-01T04:31:35;37.42;;;23.00;;
48727;SDS011;34527;45.618;5.130;2023-03-01T04:34:00;35.95;;;23.60;;
48727;SDS011;34527;45.618;5.130;2023-03-01T04:36:27;35.13;;;21.88;;
48727;SDS011;34527;45.618;5.130;2023-03-01T04:38:53;33.70;;;21.05;;
48727;SDS011;34527;45.618;5.130;2023-03-01T04:41:21;34.42;;;23.85;;
48727;SDS011;34527;45.618;5.130;2023-03-01T04:43:48;36.67;;;24.20;;
48727;SDS011;34527;45.618;5.130;2023-03-01T04:46:15;36.55;;;23.55;;
48727;SDS011;34527;45.618;5.130;2023-03-01T04:48:42;38.85;;;23.13;;
48727;SDS011;34527;45.618;5.130;2023-03-01T04:51:09;37.08;;;23.83;;
48727;SDS011;34527;45.618;5.130;2023-03-01T04:53:38;36.05;;;24.13;;
48727;SDS011;34527;45.618;5.130;2023-03-01T04:56:04;36.75;;;24.55;;
48727;SDS011;34527;45.618;5.130;2023-03-01T04:58:31;37.42;;;25.08;;
48727;SDS011;34527;45.618;5.130;2023-03-01T05:00:57;38.97;;;24.42;;
48727;SDS011;34527;45.618;5.130;2023-03-01T05:03:23;35.90;;;23.42;;
48727;SDS011;34527;45.618;5.130;2023-03-01T05:05:50;35.88;;;24.02;;
48727;SDS011;34527;45.618;5.130;2023-03-01T05:08:17;36.92;;;24.30;;
48727;SDS011;34527;45.618;5.130;2023-03-01T05:10:46;36.28;;;23.88;;
48727;SDS011;34527;45.618;5.130;2023-03-01T05:13:19;35.55;;;22.65;;
48727;SDS011;34527;45.618;5.130;2023-03-01T05:15:46;39.50;;;25.05;;
48727;SDS011;34527;45.618;5.130;2023-03-01T05:18:23;38.90;;;24.08;;
48727;SDS011;34527;45.618;5.130;2023-03-01T05:20:53;35.88;;;23.50;;
48727;SDS011;34527;45.618;5.130;2023-03-01T05:23:23;37.10;;;23.85;;
48727;SDS011;34527;45.618;5.130;2023-03-01T05:25:49;38.25;;;24.05;;
48727;SDS011;34527;45.618;5.130;2023-03-01T05:28:17;42.05;;;25.65;;
48727;SDS011;34527;45.618;5.130;2023-03-01T05:30:45;40.88;;;25.05;;
48727;SDS011;34527;45.618;5.130;2023-03-01T05:33:11;38.67;;;23.85;;
48727;SDS011;34527;45.618;5.130;2023-03-01T05:35:41;39.45;;;23.33;;
48727;SDS011;34527;45.618;5.130;2023-03-01T05:38:07;36.45;;;24.65;;
48727;SDS011;34527;45.618;5.130;2023-03-01T05:40:38;36.33;;;23.63;;
48727;SDS011;34527;45.618;5.130;2023-03-01T05:43:04;39.58;;;24.83;;
48727;SDS011;34527;45.618;5.130;2023-03-01T05:45:30;38.35;;;23.23;;
48727;SDS011;34527;45.618;5.130;2023-03-01T05:47:57;38.83;;;24.48;;
48727;SDS011;34527;45.618;5.130;2023-03-01T05:50:31;37.35;;;23.42;;
48727;SDS011;34527;45.618;5.130;2023-03-01T05:53:00;40.63;;;24.65;;
48727;SDS011;34527;45.618;5.130;2023-03-01T05:55:27;36.95;;;24.30;;
48727;SDS011;34527;45.618;5.130;2023-03-01T05:57:54;37.45;;;23.35;;
48727;SDS011;34527;45.618;5.130;2023-03-01T06:00:19;38.65;;;23.98;;
48727;SDS011;34527;45.618;5.130;2023-03-01T06:02:49;35.50;;;23.30;;
48727;SDS011;34527;45.618;5.130;2023-03-01T06:05:16;43.22;;;25.92;;
48727;SDS011;34527;45.618;5.130;2023-03-01T06:07:43;39.30;;;23.83;;
48727;SDS011;34527;45.618;5.130;2023-03-01T06:10:09;39.25;;;24.25;;
48727;SDS011;34527;45.618;5.130;2023-03-01T06:12:36;37.55;;;24.88;;
48727;SDS011;34527;45.618;5.130;2023-03-01T06:15:03;37.40;;;24.00;;
48727;SDS011;34527;45.618;5.130;2023-03-01T06:17:30;38.03;;;24.33;;
48727;SDS011;34527;45.618;5.130;2023-03-01T06:20:07;40.20;;;23.77;;
48727;SDS011;34527;45.618;5.130;2023-03-01T06:22:44;38.97;;;24.05;;
48727;SDS011;34527;45.618;5.130;2023-03-01T06:25:12;39.65;;;25.52;;
48727;SDS011;34527;45.618;5.130;2023-03-01T06:27:40;40.20;;;24.77;;
48727;SDS011;34527;45.618;5.130;2023-03-01T06:30:06;39.58;;;24.65;;
48727;SDS011;34527;45.618;5.130;2023-03-01T06:32:33;39.45;;;24.60;;
48727;SDS011;34527;45.618;5.130;2023-03-01T06:34:58;38.40;;;23.88;;
48727;SDS011;34527;45.618;5.130;2023-03-01T06:37:24;38.63;;;24.73;;
48727;SDS011;34527;45.618;5.130;2023-03-01T06:39:51;39.63;;;24.60;;
48727;SDS011;34527;45.618;5.130;2023-03-01T06:42:16;39.85;;;25.55;;
48727;SDS011;34527;45.618;5.130;2023-03-01T06:44:42;40.20;;;24.88;;
48727;SDS011;34527;45.618;5.130;2023-03-01T06:47:08;43.40;;;26.23;;
48727;SDS011;34527;45.618;5.130;2023-03-01T06:49:34;41.20;;;25.88;;
48727;SDS011;34527;45.618;5.130;2023-03-01T06:51:59;38.25;;;25.02;;
48727;SDS011;34527;45.618;5.130;2023-03-01T06:54:25;37.88;;;24.80;;
48727;SDS011;34527;45.618;5.130;2023-03-01T06:56:51;41.40;;;25.42;;
48727;SDS011;34527;45.618;5.130;2023-03-01T06:59:16;42.30;;;25.67;;
48727;SDS011;34527;45.618;5.130;2023-03-01T07:01:42;40.45;;;24.80;;
48727;SDS011;34527;45.618;5.130;2023-03-01T07:04:08;37.88;;;24.60;;
48727;SDS011;34527;45.618;5.130;2023-03-01T07:06:34;41.47;;;26.05;;
48727;SDS011;34527;45.618;5.130;2023-03-01T07:09:00;40.22;;;26.48;;
48727;SDS011;34527;45.618;5.130;2023-03-01T07:11:26;41.17;;;24.88;;
48727;SDS011;34527;45.618;5.130;2023-03-01T07:13:51;43.30;;;25.75;;
48727;SDS011;34527;45.618;5.130;2023-03-01T07:16:17;41.53;;;26.08;;
48727;SDS011;34527;45.618;5.130;2023-03-01T07:18:43;38.85;;;24.48;;
48727;SDS011;34527;45.618;5.130;2023-03-01T07:21:11;40.90;;;25.70;;
48727;SDS011;34527;45.618;5.130;2023-03-01T07:23:38;44.50;;;26.75;;
48727;SDS011;34527;45.618;5.130;2023-03-01T07:26:04;39.50;;;26.42;;
48727;SDS011;34527;45.618;5.130;2023-03-01T07:28:29;43.05;;;26.30;;
48727;SDS011;34527;45.618;5.130;2023-03-01T07:31:00;44.75;;;28.75;;
48727;SDS011;34527;45.618;5.130;2023-03-01T07:33:26;40.85;;;25.55;;
48727;SDS011;34527;45.618;5.130;2023-03-01T07:35:55;44.67;;;27.88;;
48727;SDS011;34527;45.618;5.130;2023-03-01T07:38:26;42.60;;;26.17;;
48727;SDS011;34527;45.618;5.130;2023-03-01T07:40:52;41.10;;;26.23;;
48727;SDS011;34527;45.618;5.130;2023-03-01T07:43:18;40.40;;;25.05;;
48727;SDS011;34527;45.618;5.130;2023-03-01T07:45:45;39.40;;;26.05;;
48727;SDS011;34527;45.618;5.130;2023-03-01T07:48:11;42.83;;;26.58;;
48727;SDS011;34527;45.618;5.130;2023-03-01T07:50:36;41.70;;;26.85;;
48727;SDS011;34527;45.618;5.130;2023-03-01T07:53:02;45.45;;;27.77;;
48727;SDS011;34527;45.618;5.130;2023-03-01T07:55:28;44.25;;;27.88;;
48727;SDS011;34527;45.618;5.130;2023-03-01T07:57:53;45.75;;;27.40;;
48727;SDS011;34527;45.618;5.130;2023-03-01T08:00:19;44.60;;;26.88;;
48727;SDS011;34527;45.618;5.130;2023-03-01T08:02:45;43.22;;;26.65;;
48727;SDS011;34527;45.618;5.130;2023-03-01T08:05:11;45.25;;;26.85;;
48727;SDS011;34527;45.618;5.130;2023-03-01T08:07:36;42.30;;;27.25;;
48727;SDS011;34527;45.618;5.130;2023-03-01T08:10:02;46.58;;;28.00;;
48727;SDS011;34527;45.618;5.130;2023-03-01T08:12:28;46.55;;;27.10;;
48727;SDS011;34527;45.618;5.130;2023-03-01T08:14:55;43.25;;;26.88;;
48727;SDS011;34527;45.618;5.130;2023-03-01T08:17:21;45.05;;;28.55;;
48727;SDS011;34527;45.618;5.130;2023-03-01T08:19:47;42.42;;;27.00;;
48727;SDS011;34527;45.618;5.130;2023-03-01T08:22:13;42.90;;;26.10;;
48727;SDS011;34527;45.618;5.130;2023-03-01T08:24:38;45.25;;;29.55;;
48727;SDS011;34527;45.618;5.130;2023-03-01T08:27:04;46.28;;;27.80;;
48727;SDS011;34527;45.618;5.130;2023-03-01T08:29:30;45.58;;;28.08;;
48727;SDS011;34527;45.618;5.130;2023-03-01T08:31:56;47.95;;;28.33;;
48727;SDS011;34527;45.618;5.130;2023-03-01T08:34:22;42.70;;;27.98;;
48727;SDS011;34527;45.618;5.130;2023-03-01T08:36:48;47.10;;;29.67;;
48727;SDS011;34527;45.618;5.130;2023-03-01T08:39:16;45.13;;;30.00;;
48727;SDS011;34527;45.618;5.130;2023-03-01T08:41:43;51.20;;;29.75;;
48727;SDS011;34527;45.618;5.130;2023-03-01T08:44:09;45.70;;;29.83;;
48727;SDS011;34527;45.618;5.130;2023-03-01T08:46:37;48.40;;;30.77;;
48727;SDS011;34527;45.618;5.130;2023-03-01T08:49:05;42.17;;;28.90;;
48727;SDS011;34527;45.618;5.130;2023-03-01T08:51:36;45.15;;;28.75;;
48727;SDS011;34527;45.618;5.130;2023-03-01T08:54:05;45.42;;;28.73;;
48727;SDS011;34527;45.618;5.130;2023-03-01T08:56:33;50.13;;;28.58;;
48727;SDS011;34527;45.618;5.130;2023-03-01T08:58:59;44.42;;;28.98;;
48727;SDS011;34527;45.618;5.130;2023-03-01T09:01:24;47.60;;;29.70;;
48727;SDS011;34527;45.618;5.130;2023-03-01T09:03:50;45.30;;;28.17;;
48727;SDS011;34527;45.618;5.130;2023-03-01T09:06:16;46.45;;;29.55;;
48727;SDS011;34527;45.618;5.130;2023-03-01T09:08:43;49.85;;;30.20;;
48727;SDS011;34527;45.618;5.130;2023-03-01T09:11:11;51.38;;;29.67;;
48727;SDS011;34527;45.618;5.130;2023-03-01T09:13:40;43.50;;;27.75;;
48727;SDS011;34527;45.618;5.130;2023-03-01T09:16:06;50.00;;;30.00;;
48727;SDS011;34527;45.618;5.130;2023-03-01T09:18:33;48.70;;;29.55;;
48727;SDS011;34527;45.618;5.130;2023-03-01T09:21:06;45.28;;;29.38;;
48727;SDS011;34527;45.618;5.130;2023-03-01T09:26:02;48.63;;;30.88;;
48727;SDS011;34527;45.618;5.130;2023-03-01T09:28:28;45.70;;;29.30;;
48727;SDS011;34527;45.618;5.130;2023-03-01T09:30:57;45.88;;;28.67;;
48727;SDS011;34527;45.618;5.130;2023-03-01T09:33:26;46.78;;;29.52;;
48727;SDS011;34527;45.618;5.130;2023-03-01T09:36:00;48.70;;;30.48;;
48727;SDS011;34527;45.618;5.130;2023-03-01T09:38:30;49.35;;;30.85;;
48727;SDS011;34527;45.618;5.130;2023-03-01T09:40:56;47.92;;;30.67;;
48727;SDS011;34527;45.618;5.130;2023-03-01T09:43:27;49.90;;;30.08;;
48727;SDS011;34527;45.618;5.130;2023-03-01T09:46:09;47.80;;;29.00;;
48727;SDS011;34527;45.618;5.130;2023-03-01T09:48:41;47.85;;;31.50;;
48727;SDS011;34527;45.618;5.130;2023-03-01T09:51:27;46.28;;;29.73;;
48727;SDS011;34527;45.618;5.130;2023-03-01T09:53:56;50.33;;;31.55;;
48727;SDS011;34527;45.618;5.130;2023-03-01T09:56:30;52.97;;;31.77;;
48727;SDS011;34527;45.618;5.130;2023-03-01T10:01:40;46.42;;;30.05;;
48727;SDS011;34527;45.618;5.130;2023-03-01T10:04:24;48.10;;;32.40;;
48727;SDS011;34527;45.618;5.130;2023-03-01T10:09:42;47.90;;;31.17;;
48727;SDS011;34527;45.618;5.130;2023-03-01T10:12:12;50.22;;;31.75;;
48727;SDS011;34527;45.618;5.130;2023-03-01T10:14:55;48.75;;;32.35;;
48727;SDS011;34527;45.618;5.130;2023-03-01T10:17:30;46.95;;;29.85;;
48727;SDS011;34527;45.618;5.130;2023-03-01T10:22:45;46.90;;;30.77;;
48727;SDS011;34527;45.618;5.130;2023-03-01T10:25:15;50.60;;;31.88;;
48727;SDS011;34527;45.618;5.130;2023-03-01T10:28:05;49.10;;;31.35;;
48727;SDS011;34527;45.618;5.130;2023-03-01T10:30:41;46.95;;;30.00;;
48727;SDS011;34527;45.618;5.130;2023-03-01T10:33:20;50.10;;;31.52;;
48727;SDS011;34527;45.618;5.130;2023-03-01T10:35:49;51.10;;;31.92;;
48727;SDS011;34527;45.618;5.130;2023-03-01T10:38:16;51.97;;;31.48;;
48727;SDS011;34527;45.618;5.130;2023-03-01T10:40:59;48.72;;;31.70;;
48727;SDS011;34527;45.618;5.130;2023-03-01T10:43:46;50.78;;;31.48;;
48727;SDS011;34527;45.618;5.130;2023-03-01T10:46:24;47.78;;;30.75;;
48727;SDS011;34527;45.618;5.130;2023-03-01T10:49:05;48.88;;;31.27;;
48727;SDS011;34527;45.618;5.130;2023-03-01T10:51:37;51.30;;;29.42;;
48727;SDS011;34527;45.618;5.130;2023-03-01T10:56:46;48.75;;;31.58;;
48727;SDS011;34527;45.618;5.130;2023-03-01T10:59:34;44.88;;;29.67;;
48727;SDS011;34527;45.618;5.130;2023-03-01T11:07:55;50.25;;;31.73;;
48727;SDS011;34527;45.618;5.130;2023-03-01T11:10:26;51.08;;;31.27;;
48727;SDS011;34527;45.618;5.130;2023-03-01T11:12:53;49.17;;;32.72;;
48727;SDS011;34527;45.618;5.130;2023-03-01T11:15:31;47.67;;;31.23;;
48727;SDS011;34527;45.618;5.130;2023-03-01T11:17:56;50.42;;;32.97;;
48727;SDS011;34527;45.618;5.130;2023-03-01T11:23:05;53.08;;;32.13;;
48727;SDS011;34527;45.618;5.130;2023-03-01T11:25:36;47.42;;;31.33;;
48727;SDS011;34527;45.618;5.130;2023-03-01T11:28:05;48.97;;;32.08;;
48727;SDS011;34527;45.618;5.130;2023-03-01T11:30:39;47.63;;;30.45;;
48727;SDS011;34527;45.618;5.130;2023-03-01T11:35:55;45.38;;;30.95;;
48727;SDS011;34527;45.618;5.130;2023-03-01T11:38:27;47.42;;;32.00;;
48727;SDS011;34527;45.618;5.130;2023-03-01T11:40:58;49.08;;;31.58;;
48727;SDS011;34527;45.618;5.130;2023-03-01T11:43:37;54.58;;;32.50;;
48727;SDS011;34527;45.618;5.130;2023-03-01T11:48:56;46.25;;;31.63;;
48727;SDS011;34527;45.618;5.130;2023-03-01T11:57:53;50.13;;;31.60;;
48727;SDS011;34527;45.618;5.130;2023-03-01T12:40:16;48.47;;;31.33;;
48727;SDS011;34527;45.618;5.130;2023-03-01T12:50:24;49.45;;;31.63;;
48727;SDS011;34527;45.618;5.130;2023-03-01T12:52:57;46.13;;;32.40;;
48727;SDS011;34527;45.618;5.130;2023-03-01T12:55:36;49.55;;;33.13;;
48727;SDS011;34527;45.618;5.130;2023-03-01T13:03:38;49.42;;;31.67;;
48727;SDS011;34527;45.618;5.130;2023-03-01T13:06:15;51.00;;;31.75;;
48727;SDS011;34527;45.618;5.130;2023-03-01T13:08:58;47.42;;;32.97;;
48727;SDS011;34527;45.618;5.130;2023-03-01T13:11:46;48.50;;;32.50;;
48727;SDS011;34527;45.618;5.130;2023-03-01T13:16:48;51.13;;;33.05;;
48727;SDS011;34527;45.618;5.130;2023-03-01T13:19:15;50.10;;;34.20;;
48727;SDS011;34527;45.618;5.130;2023-03-01T13:24:25;45.67;;;31.08;;
48727;SDS011;34527;45.618;5.130;2023-03-01T13:32:28;50.83;;;32.53;;
48727;SDS011;34527;45.618;5.130;2023-03-01T13:35:00;48.63;;;32.45;;
48727;SDS011;34527;45.618;5.130;2023-03-01T13:37:36;51.05;;;33.45;;
48727;SDS011;34527;45.618;5.130;2023-03-01T13:42:48;53.67;;;34.55;;
48727;SDS011;34527;45.618;5.130;2023-03-01T13:45:36;50.65;;;33.33;;
48727;SDS011;34527;45.618;5.130;2023-03-01T13:48:08;51.25;;;33.17;;
48727;SDS011;34527;45.618;5.130;2023-03-01T13:50:46;50.40;;;32.00;;
48727;SDS011;34527;45.618;5.130;2023-03-01T13:53:17;55.45;;;33.83;;
48727;SDS011;34527;45.618;5.130;2023-03-01T13:55:45;51.60;;;33.28;;
48727;SDS011;34527;45.618;5.130;2023-03-01T14:00:46;50.25;;;32.92;;
48727;SDS011;34527;45.618;5.130;2023-03-01T14:03:18;51.97;;;32.45;;
48727;SDS011;34527;45.618;5.130;2023-03-01T14:08:38;48.97;;;31.90;;
48727;SDS011;34527;45.618;5.130;2023-03-01T14:20:38;48.20;;;30.80;;
48727;SDS011;34527;45.618;5.130;2023-03-01T14:23:13;50.05;;;30.58;;
48727;SDS011;34527;45.618;5.130;2023-03-01T14:25:46;47.60;;;30.02;;
48727;SDS011;34527;45.618;5.130;2023-03-01T14:28:15;51.05;;;32.17;;
48727;SDS011;34527;45.618;5.130;2023-03-01T14:30:50;43.90;;;30.08;;
48727;SDS011;34527;45.618;5.130;2023-03-01T14:33:18;51.92;;;32.05;;
48727;SDS011;34527;45.618;5.130;2023-03-01T14:36:02;49.90;;;31.15;;
48727;SDS011;34527;45.618;5.130;2023-03-01T14:38:36;47.35;;;32.05;;
48727;SDS011;34527;45.618;5.130;2023-03-01T14:41:03;50.28;;;32.15;;
48727;SDS011;34527;45.618;5.130;2023-03-01T14:43:44;51.42;;;32.22;;
48727;SDS011;34527;45.618;5.130;2023-03-01T14:51:43;50.05;;;32.72;;
48727;SDS011;34527;45.618;5.130;2023-03-01T14:54:21;47.38;;;32.45;;
48727;SDS011;34527;45.618;5.130;2023-03-01T14:56:49;48.00;;;31.10;;
48727;SDS011;34527;45.618;5.130;2023-03-01T14:59:19;48.22;;;31.13;;
48727;SDS011;34527;45.618;5.130;2023-03-01T15:01:47;46.03;;;30.90;;
48727;SDS011;34527;45.618;5.130;2023-03-01T15:04:13;47.92;;;31.15;;
48727;SDS011;34527;45.618;5.130;2023-03-01T15:06:40;50.25;;;33.05;;
48727;SDS011;34527;45.618;5.130;2023-03-01T15:09:06;49.17;;;32.10;;
48727;SDS011;34527;45.618;5.130;2023-03-01T15:11:36;51.55;;;32.30;;
48727;SDS011;34527;45.618;5.130;2023-03-01T15:14:24;47.95;;;32.50;;
48727;SDS011;34527;45.618;5.130;2023-03-01T15:17:03;51.65;;;32.75;;
48727;SDS011;34527;45.618;5.130;2023-03-01T15:19:29;49.00;;;31.98;;
48727;SDS011;34527;45.618;5.130;2023-03-01T15:21:54;47.75;;;31.25;;
48727;SDS011;34527;45.618;5.130;2023-03-01T15:24:24;48.53;;;32.45;;
48727;SDS011;34527;45.618;5.130;2023-03-01T15:26:59;47.83;;;30.60;;
48727;SDS011;34527;45.618;5.130;2023-03-01T15:29:32;48.90;;;32.88;;
48727;SDS011;34527;45.618;5.130;2023-03-01T15:36:56;51.30;;;33.53;;
48727;SDS011;34527;45.618;5.130;2023-03-01T15:42:47;53.13;;;32.85;;
48727;SDS011;34527;45.618;5.130;2023-03-01T15:47:39;50.58;;;32.75;;
48727;SDS011;34527;45.618;5.130;2023-03-01T15:50:25;48.53;;;33.10;;
48727;SDS011;34527;45.618;5.130;2023-03-01T15:52:53;55.28;;;32.40;;
48727;SDS011;34527;45.618;5.130;2023-03-01T15:55:21;50.63;;;32.15;;
48727;SDS011;34527;45.618;5.130;2023-03-01T15:57:49;51.47;;;32.83;;
48727;SDS011;34527;45.618;5.130;2023-03-01T16:00:23;49.28;;;32.45;;
48727;SDS011;34527;45.618;5.130;2023-03-01T16:02:49;47.70;;;31.90;;
48727;SDS011;34527;45.618;5.130;2023-03-01T16:05:17;50.03;;;32.20;;
48727;SDS011;34527;45.618;5.130;2023-03-01T16:07:46;50.63;;;32.15;;
48727;SDS011;34527;45.618;5.130;2023-03-01T16:10:12;48.60;;;32.40;;
48727;SDS011;34527;45.618;5.130;2023-03-01T16:12:38;48.80;;;32.38;;
48727;SDS011;34527;45.618;5.130;2023-03-01T16:15:04;48.58;;;32.30;;
48727;SDS011;34527;45.618;5.130;2023-03-01T16:17:38;48.33;;;32.17;;
48727;SDS011;34527;45.618;5.130;2023-03-01T16:20:04;45.58;;;31.25;;
48727;SDS011;34527;45.618;5.130;2023-03-01T16:22:30;50.13;;;31.83;;
48727;SDS011;34527;45.618;5.130;2023-03-01T16:24:56;45.97;;;30.60;;
48727;SDS011;34527;45.618;5.130;2023-03-01T16:27:21;44.65;;;31.00;;
48727;SDS011;34527;45.618;5.130;2023-03-01T16:29:47;45.92;;;31.10;;
48727;SDS011;34527;45.618;5.130;2023-03-01T16:32:13;45.83;;;30.52;;
48727;SDS011;34527;45.618;5.130;2023-03-01T16:34:38;45.47;;;29.92;;
48727;SDS011;34527;45.618;5.130;2023-03-01T16:37:04;46.78;;;30.33;;
48727;SDS011;34527;45.618;5.130;2023-03-01T16:39:29;43.83;;;30.05;;
48727;SDS011;34527;45.618;5.130;2023-03-01T16:41:55;47.55;;;30.75;;
48727;SDS011;34527;45.618;5.130;2023-03-01T16:44:21;43.47;;;29.42;;
48727;SDS011;34527;45.618;5.130;2023-03-01T16:46:46;46.88;;;30.50;;
48727;SDS011;34527;45.618;5.130;2023-03-01T16:49:12;46.42;;;30.48;;
48727;SDS011;34527;45.618;5.130;2023-03-01T16:51:38;45.17;;;30.15;;